sensor_id;sensor_type;location;lat;lon;timestamp;temperature;humidity
6054;DHT22;3055;50.886;14.814;2023-08-07T00:02:02;14.60;99.90
6054;DHT22;3055;50.886;14.814;2023-08-07T00:04:29;14.60;99.90
6054;DHT22;3055;50.886;14.814;2023-08-07T00:06:56;14.60;99.90
6054;DHT22;3055;50.886;14.814;2023-08-07T00:09:23;14.60;99.90
6054;DHT22;3055;50.886;14.814;2023-08-07T00:11:52;14.50;99.90
6054;DHT22;3055;50.886;14.814;2023-08-07T00:14:19;14.60;99.90
6054;DHT22;3055;50.886;14.814;2023-08-07T00:16:46;14.60;99.90
6054;DHT22;3055;50.886;14.814;2023-08-07T00:19:13;14.60;99.90
6054;DHT22;3055;50.886;14.814;2023-08-07T00:21:40;14.60;99.90
6054;DHT22;3055;50.886;14.814;2023-08-07T00:24:07;14.60;99.90
6054;DHT22;3055;50.886;14.814;2023-08-07T00:26:34;14.60;99.90
6054;DHT22;3055;50.886;14.814;2023-08-07T00:29:03;14.60;99.90
6054;DHT22;3055;50.886;14.814;2023-08-07T00:31:30;14.60;99.90
6054;DHT22;3055;50.886;14.814;2023-08-07T00:33:57;14.80;99.90
6054;DHT22;3055;50.886;14.814;2023-08-07T00:36:24;14.80;99.90
6054;DHT22;3055;50.886;14.814;2023-08-07T00:38:54;14.90;99.90
6054;DHT22;3055;50.886;14.814;2023-08-07T00:41:21;14.90;99.90
6054;DHT22;3055;50.886;14.814;2023-08-07T00:43:48;14.90;99.90
6054;DHT22;3055;50.886;14.814;2023-08-07T00:46:16;14.90;99.90
6054;DHT22;3055;50.886;14.814;2023-08-07T00:48:44;14.90;99.90
6054;DHT22;3055;50.886;14.814;2023-08-07T00:51:12;14.90;99.90
6054;DHT22;3055;50.886;14.814;2023-08-07T00:53:40;14.90;99.90
6054;DHT22;3055;50.886;14.814;2023-08-07T00:56:07;14.90;99.90
6054;DHT22;3055;50.886;14.814;2023-08-07T00:58:34;14.90;99.90
6054;DHT22;3055;50.886;14.814;2023-08-07T01:01:03;14.90;99.90
6054;DHT22;3055;50.886;14.814;2023-08-07T01:03:32;14.90;99.90
6054;DHT22;3055;50.886;14.814;2023-08-07T01:05:59;14.80;99.90
6054;DHT22;3055;50.886;14.814;2023-08-07T01:08:27;14.80;99.90
6054;DHT22;3055;50.886;14.814;2023-08-07T01:11:09;14.80;99.90
6054;DHT22;3055;50.886;14.814;2023-08-07T01:13:42;14.90;99.90
6054;DHT22;3055;50.886;14.814;2023-08-07T01:16:22;14.90;99.90
6054;DHT22;3055;50.886;14.814;2023-08-07T01:18:53;14.90;99.90
6054;DHT22;3055;50.886;14.814;2023-08-07T01:21:21;14.90;99.90
6054;DHT22;3055;50.886;14.814;2023-08-07T01:23:50;14.90;99.90
6054;DHT22;3055;50.886;14.814;2023-08-07T01:26:19;15.00;99.90
6054;DHT22;3055;50.886;14.814;2023-08-07T01:28:52;14.90;99.90
6054;DHT22;3055;50.886;14.814;2023-08-07T01:31:22;14.90;99.90
6054;DHT22;3055;50.886;14.814;2023-08-07T01:33:57;14.90;99.90
6054;DHT22;3055;50.886;14.814;2023-08-07T01:36:27;14.90;99.90
6054;DHT22;3055;50.886;14.814;2023-08-07T01:38:57;14.90;99.90
6054;DHT22;3055;50.886;14.814;2023-08-07T01:41:26;14.80;99.90
6054;DHT22;3055;50.886;14.814;2023-08-07T01:43:54;14.80;99.90
6054;DHT22;3055;50.886;14.814;2023-08-07T01:46:21;14.80;99.90
6054;DHT22;3055;50.886;14.814;2023-08-07T01:48:48;14.80;99.90
6054;DHT22;3055;50.886;14.814;2023-08-07T01:51:15;14.80;99.90
6054;DHT22;3055;50.886;14.814;2023-08-07T01:53:42;14.80;99.90
6054;DHT22;3055;50.886;14.814;2023-08-07T01:56:10;14.80;99.90
6054;DHT22;3055;50.886;14.814;2023-08-07T01:58:37;14.80;99.90
6054;DHT22;3055;50.886;14.814;2023-08-07T02:01:04;14.80;99.90
6054;DHT22;3055;50.886;14.814;2023-08-07T02:03:31;14.70;99.90
6054;DHT22;3055;50.886;14.814;2023-08-07T02:05:58;14.70;99.90
6054;DHT22;3055;50.886;14.814;2023-08-07T02:08:26;14.70;99.90
6054;DHT22;3055;50.886;14.814;2023-08-07T02:10:53;14.70;99.90
6054;DHT22;3055;50.886;14.814;2023-08-07T02:13:22;14.70;99.90
6054;DHT22;3055;50.886;14.814;2023-08-07T02:15:49;14.70;99.90
6054;DHT22;3055;50.886;14.814;2023-08-07T02:18:16;14.70;99.90
6054;DHT22;3055;50.886;14.814;2023-08-07T02:20:43;14.60;99.90
6054;DHT22;3055;50.886;14.814;2023-08-07T02:23:11;14.70;99.90
6054;DHT22;3055;50.886;14.814;2023-08-07T02:25:38;14.70;99.90
6054;DHT22;3055;50.886;14.814;2023-08-07T02:28:05;14.60;99.90
6054;DHT22;3055;50.886;14.814;2023-08-07T02:30:34;14.60;99.90
6054;DHT22;3055;50.886;14.814;2023-08-07T02:33:01;14.60;99.90
6054;DHT22;3055;50.886;14.814;2023-08-07T02:35:27;14.60;99.90
6054;DHT22;3055;50.886;14.814;2023-08-07T02:37:54;14.60;99.90
6054;DHT22;3055;50.886;14.814;2023-08-07T02:40:21;14.60;99.90
6054;DHT22;3055;50.886;14.814;2023-08-07T02:42:48;14.60;99.90
6054;DHT22;3055;50.886;14.814;2023-08-07T02:45:15;14.60;99.90
6054;DHT22;3055;50.886;14.814;2023-08-07T02:47:44;14.50;99.90
6054;DHT22;3055;50.886;14.814;2023-08-07T02:50:11;14.60;99.90
6054;DHT22;3055;50.886;14.814;2023-08-07T02:52:38;14.60;99.90
6054;DHT22;3055;50.886;14.814;2023-08-07T02:55:06;14.60;99.90
6054;DHT22;3055;50.886;14.814;2023-08-07T02:57:33;14.60;99.90
6054;DHT22;3055;50.886;14.814;2023-08-07T03:00:00;14.60;99.90
6054;DHT22;3055;50.886;14.814;2023-08-07T03:02:27;14.60;99.90
6054;DHT22;3055;50.886;14.814;2023-08-07T03:04:55;14.50;99.90
6054;DHT22;3055;50.886;14.814;2023-08-07T03:07:23;14.60;99.90
6054;DHT22;3055;50.886;14.814;2023-08-07T03:09:50;14.60;99.90
6054;DHT22;3055;50.886;14.814;2023-08-07T03:12:17;14.60;99.90
6054;DHT22;3055;50.886;14.814;2023-08-07T03:14:44;14.60;99.90
6054;DHT22;3055;50.886;14.814;2023-08-07T03:17:11;14.60;99.90
6054;DHT22;3055;50.886;14.814;2023-08-07T03:19:39;14.60;99.90
6054;DHT22;3055;50.886;14.814;2023-08-07T03:22:08;14.60;99.90
6054;DHT22;3055;50.886;14.814;2023-08-07T03:24:35;14.60;99.90
6054;DHT22;3055;50.886;14.814;2023-08-07T03:27:02;14.60;99.90
6054;DHT22;3055;50.886;14.814;2023-08-07T03:29:30;14.60;99.90
6054;DHT22;3055;50.886;14.814;2023-08-07T03:31:57;14.50;99.90
6054;DHT22;3055;50.886;14.814;2023-08-07T03:34:24;14.50;99.90
6054;DHT22;3055;50.886;14.814;2023-08-07T03:36:51;14.50;99.90
6054;DHT22;3055;50.886;14.814;2023-08-07T03:39:19;14.50;99.90
6054;DHT22;3055;50.886;14.814;2023-08-07T03:41:46;14.50;99.90
6054;DHT22;3055;50.886;14.814;2023-08-07T03:44:13;14.40;99.90
6054;DHT22;3055;50.886;14.814;2023-08-07T03:46:40;14.40;99.90
6054;DHT22;3055;50.886;14.814;2023-08-07T03:49:07;14.40;99.90
6054;DHT22;3055;50.886;14.814;2023-08-07T03:51:34;14.40;99.90
6054;DHT22;3055;50.886;14.814;2023-08-07T03:54:01;14.40;99.90
6054;DHT22;3055;50.886;14.814;2023-08-07T03:56:30;14.30;99.90
6054;DHT22;3055;50.886;14.814;2023-08-07T03:59:01;14.30;99.90
6054;DHT22;3055;50.886;14.814;2023-08-07T04:01:28;14.30;99.90
6054;DHT22;3055;50.886;14.814;2023-08-07T04:03:55;14.30;99.90
6054;DHT22;3055;50.886;14.814;2023-08-07T04:06:23;14.30;99.90
6054;DHT22;3055;50.886;14.814;2023-08-07T04:08:52;14.30;99.90
6054;DHT22;3055;50.886;14.814;2023-08-07T04:11:19;14.30;99.90
6054;DHT22;3055;50.886;14.814;2023-08-07T04:13:48;14.30;99.90
6054;DHT22;3055;50.886;14.814;2023-08-07T04:16:15;14.30;99.90
6054;DHT22;3055;50.886;14.814;2023-08-07T04:18:42;14.30;99.90
6054;DHT22;3055;50.886;14.814;2023-08-07T04:21:09;14.30;99.90
6054;DHT22;3055;50.886;14.814;2023-08-07T04:23:36;14.30;99.90
6054;DHT22;3055;50.886;14.814;2023-08-07T04:26:03;14.30;99.90
6054;DHT22;3055;50.886;14.814;2023-08-07T04:28:30;14.30;99.90
6054;DHT22;3055;50.886;14.814;2023-08-07T04:30:59;14.30;99.90
6054;DHT22;3055;50.886;14.814;2023-08-07T04:33:26;14.40;99.90
6054;DHT22;3055;50.886;14.814;2023-08-07T04:35:53;14.40;99.90
6054;DHT22;3055;50.886;14.814;2023-08-07T04:38:20;14.40;99.90
6054;DHT22;3055;50.886;14.814;2023-08-07T04:40:48;14.40;99.90
6054;DHT22;3055;50.886;14.814;2023-08-07T04:43:17;14.50;99.90
6054;DHT22;3055;50.886;14.814;2023-08-07T04:45:45;14.40;99.90
6054;DHT22;3055;50.886;14.814;2023-08-07T04:48:14;14.40;99.90
6054;DHT22;3055;50.886;14.814;2023-08-07T04:50:41;14.50;99.90
6054;DHT22;3055;50.886;14.814;2023-08-07T04:53:08;14.50;99.90
6054;DHT22;3055;50.886;14.814;2023-08-07T04:55:36;14.40;99.90
6054;DHT22;3055;50.886;14.814;2023-08-07T04:58:03;14.40;99.90
6054;DHT22;3055;50.886;14.814;2023-08-07T05:00:31;14.40;99.90
6054;DHT22;3055;50.886;14.814;2023-08-07T05:02:58;14.40;99.90
6054;DHT22;3055;50.886;14.814;2023-08-07T05:05:27;14.30;99.90
6054;DHT22;3055;50.886;14.814;2023-08-07T05:07:54;14.30;99.90
6054;DHT22;3055;50.886;14.814;2023-08-07T05:10:22;14.30;99.90
6054;DHT22;3055;50.886;14.814;2023-08-07T05:12:49;14.30;99.90
6054;DHT22;3055;50.886;14.814;2023-08-07T05:15:20;14.40;99.90
6054;DHT22;3055;50.886;14.814;2023-08-07T05:17:48;14.40;99.90
6054;DHT22;3055;50.886;14.814;2023-08-07T05:20:15;14.50;99.90
6054;DHT22;3055;50.886;14.814;2023-08-07T05:22:44;14.50;99.90
6054;DHT22;3055;50.886;14.814;2023-08-07T05:25:11;14.50;99.90
6054;DHT22;3055;50.886;14.814;2023-08-07T05:27:41;14.50;99.90
6054;DHT22;3055;50.886;14.814;2023-08-07T05:30:09;14.60;99.90
6054;DHT22;3055;50.886;14.814;2023-08-07T05:32:36;14.60;99.90
6054;DHT22;3055;50.886;14.814;2023-08-07T05:35:04;14.60;99.90
6054;DHT22;3055;50.886;14.814;2023-08-07T05:37:32;14.60;99.90
6054;DHT22;3055;50.886;14.814;2023-08-07T05:40:01;14.50;99.90
6054;DHT22;3055;50.886;14.814;2023-08-07T05:42:29;14.50;99.90
6054;DHT22;3055;50.886;14.814;2023-08-07T05:44:56;14.60;99.90
6054;DHT22;3055;50.886;14.814;2023-08-07T05:47:23;14.60;99.90
6054;DHT22;3055;50.886;14.814;2023-08-07T05:49:52;14.70;99.90
6054;DHT22;3055;50.886;14.814;2023-08-07T05:52:19;14.80;99.90
6054;DHT22;3055;50.886;14.814;2023-08-07T05:54:46;14.90;99.90
6054;DHT22;3055;50.886;14.814;2023-08-07T05:57:14;15.00;99.90
6054;DHT22;3055;50.886;14.814;2023-08-07T05:59:42;15.10;99.90
6054;DHT22;3055;50.886;14.814;2023-08-07T06:02:09;15.20;99.90
6054;DHT22;3055;50.886;14.814;2023-08-07T06:04:37;15.30;99.90
6054;DHT22;3055;50.886;14.814;2023-08-07T06:07:05;15.40;99.90
6054;DHT22;3055;50.886;14.814;2023-08-07T06:09:32;15.50;99.90
6054;DHT22;3055;50.886;14.814;2023-08-07T06:11:59;15.60;99.90
6054;DHT22;3055;50.886;14.814;2023-08-07T06:14:28;15.80;99.90
6054;DHT22;3055;50.886;14.814;2023-08-07T06:16:56;15.80;99.90
6054;DHT22;3055;50.886;14.814;2023-08-07T06:19:23;15.90;99.90
6054;DHT22;3055;50.886;14.814;2023-08-07T06:21:52;16.00;99.90
6054;DHT22;3055;50.886;14.814;2023-08-07T06:24:19;16.10;99.90
6054;DHT22;3055;50.886;14.814;2023-08-07T06:26:46;16.30;99.90
6054;DHT22;3055;50.886;14.814;2023-08-07T06:29:14;16.50;99.90
6054;DHT22;3055;50.886;14.814;2023-08-07T06:31:42;16.70;99.90
6054;DHT22;3055;50.886;14.814;2023-08-07T06:34:09;16.80;99.90
6054;DHT22;3055;50.886;14.814;2023-08-07T06:36:37;16.90;99.90
6054;DHT22;3055;50.886;14.814;2023-08-07T06:39:04;17.10;99.90
6054;DHT22;3055;50.886;14.814;2023-08-07T06:41:32;17.20;99.90
6054;DHT22;3055;50.886;14.814;2023-08-07T06:43:59;17.30;99.90
6054;DHT22;3055;50.886;14.814;2023-08-07T06:46:26;17.20;99.90
6054;DHT22;3055;50.886;14.814;2023-08-07T06:48:55;17.30;99.90
6054;DHT22;3055;50.886;14.814;2023-08-07T06:51:22;17.30;99.90
6054;DHT22;3055;50.886;14.814;2023-08-07T06:53:49;17.30;99.90
6054;DHT22;3055;50.886;14.814;2023-08-07T06:56:16;17.50;99.90
6054;DHT22;3055;50.886;14.814;2023-08-07T06:58:43;17.50;99.90
6054;DHT22;3055;50.886;14.814;2023-08-07T07:01:10;17.50;99.90
6054;DHT22;3055;50.886;14.814;2023-08-07T07:03:37;17.40;99.90
6054;DHT22;3055;50.886;14.814;2023-08-07T07:06:06;17.30;99.90
6054;DHT22;3055;50.886;14.814;2023-08-07T07:08:34;17.10;99.90
6054;DHT22;3055;50.886;14.814;2023-08-07T07:11:01;16.80;99.90
6054;DHT22;3055;50.886;14.814;2023-08-07T07:13:30;16.60;99.90
6054;DHT22;3055;50.886;14.814;2023-08-07T07:15:57;16.50;99.90
6054;DHT22;3055;50.886;14.814;2023-08-07T07:18:24;16.40;99.90
6054;DHT22;3055;50.886;14.814;2023-08-07T07:20:56;16.50;99.90
6054;DHT22;3055;50.886;14.814;2023-08-07T07:23:26;16.70;99.90
6054;DHT22;3055;50.886;14.814;2023-08-07T07:25:53;16.80;99.90
6054;DHT22;3055;50.886;14.814;2023-08-07T07:28:20;16.90;99.90
6054;DHT22;3055;50.886;14.814;2023-08-07T07:30:48;16.90;99.90
6054;DHT22;3055;50.886;14.814;2023-08-07T07:33:16;16.90;99.90
6054;DHT22;3055;50.886;14.814;2023-08-07T07:35:43;17.00;99.90
6054;DHT22;3055;50.886;14.814;2023-08-07T07:38:10;17.00;99.90
6054;DHT22;3055;50.886;14.814;2023-08-07T07:40:39;17.00;99.90
6054;DHT22;3055;50.886;14.814;2023-08-07T07:43:09;17.20;99.90
6054;DHT22;3055;50.886;14.814;2023-08-07T07:45:36;17.40;99.90
6054;DHT22;3055;50.886;14.814;2023-08-07T07:48:03;17.50;99.90
6054;DHT22;3055;50.886;14.814;2023-08-07T07:50:31;17.50;99.90
6054;DHT22;3055;50.886;14.814;2023-08-07T07:52:58;17.50;99.90
6054;DHT22;3055;50.886;14.814;2023-08-07T07:55:26;17.60;99.90
6054;DHT22;3055;50.886;14.814;2023-08-07T07:57:54;17.80;99.90
6054;DHT22;3055;50.886;14.814;2023-08-07T08:00:22;18.00;99.90
6054;DHT22;3055;50.886;14.814;2023-08-07T08:02:52;18.40;99.90
6054;DHT22;3055;50.886;14.814;2023-08-07T08:05:19;18.60;60.90
6054;DHT22;3055;50.886;14.814;2023-08-07T08:07:46;18.60;19.10
6054;DHT22;3055;50.886;14.814;2023-08-07T08:10:13;18.60;16.00
6054;DHT22;3055;50.886;14.814;2023-08-07T08:12:40;18.50;50.60
6054;DHT22;3055;50.886;14.814;2023-08-07T08:15:09;18.60;90.40
6054;DHT22;3055;50.886;14.814;2023-08-07T08:17:37;18.70;3.80
6054;DHT22;3055;50.886;14.814;2023-08-07T08:20:05;18.70;1.00
6054;DHT22;3055;50.886;14.814;2023-08-07T08:22:33;18.90;48.80
6054;DHT22;3055;50.886;14.814;2023-08-07T08:25:00;19.00;1.00
6054;DHT22;3055;50.886;14.814;2023-08-07T08:27:27;18.90;1.00
6054;DHT22;3055;50.886;14.814;2023-08-07T08:29:54;18.90;1.00
6054;DHT22;3055;50.886;14.814;2023-08-07T08:32:23;19.00;1.00
6054;DHT22;3055;50.886;14.814;2023-08-07T08:34:50;18.90;1.00
6054;DHT22;3055;50.886;14.814;2023-08-07T08:37:17;18.60;1.00
6054;DHT22;3055;50.886;14.814;2023-08-07T08:39:44;18.00;24.90
6054;DHT22;3055;50.886;14.814;2023-08-07T08:42:12;17.60;19.80
6054;DHT22;3055;50.886;14.814;2023-08-07T08:44:39;17.50;92.90
6054;DHT22;3055;50.886;14.814;2023-08-07T08:47:07;17.50;93.80
6054;DHT22;3055;50.886;14.814;2023-08-07T08:49:42;17.70;98.50
6054;DHT22;3055;50.886;14.814;2023-08-07T08:52:10;17.90;99.90
6054;DHT22;3055;50.886;14.814;2023-08-07T08:54:38;18.30;25.70
6054;DHT22;3055;50.886;14.814;2023-08-07T08:57:06;18.70;60.50
6054;DHT22;3055;50.886;14.814;2023-08-07T08:59:34;18.90;3.70
6054;DHT22;3055;50.886;14.814;2023-08-07T09:02:01;19.10;1.00
6054;DHT22;3055;50.886;14.814;2023-08-07T09:04:29;19.10;1.00
6054;DHT22;3055;50.886;14.814;2023-08-07T09:06:57;18.70;1.00
6054;DHT22;3055;50.886;14.814;2023-08-07T09:09:25;18.20;1.00
6054;DHT22;3055;50.886;14.814;2023-08-07T09:11:52;17.80;1.00
6054;DHT22;3055;50.886;14.814;2023-08-07T09:14:24;17.50;9.90
6054;DHT22;3055;50.886;14.814;2023-08-07T09:16:51;17.20;48.50
6054;DHT22;3055;50.886;14.814;2023-08-07T09:19:19;17.10;99.90
6054;DHT22;3055;50.886;14.814;2023-08-07T09:21:46;17.10;93.90
6054;DHT22;3055;50.886;14.814;2023-08-07T09:24:15;17.20;99.90
6054;DHT22;3055;50.886;14.814;2023-08-07T09:26:44;17.30;99.90
6054;DHT22;3055;50.886;14.814;2023-08-07T09:29:11;17.60;99.90
6054;DHT22;3055;50.886;14.814;2023-08-07T09:31:43;18.00;13.10
6054;DHT22;3055;50.886;14.814;2023-08-07T09:34:11;18.40;1.00
6054;DHT22;3055;50.886;14.814;2023-08-07T09:36:41;18.70;1.00
6054;DHT22;3055;50.886;14.814;2023-08-07T09:39:08;18.90;1.00
6054;DHT22;3055;50.886;14.814;2023-08-07T09:41:38;19.00;1.00
6054;DHT22;3055;50.886;14.814;2023-08-07T09:44:06;19.00;99.90
6054;DHT22;3055;50.886;14.814;2023-08-07T09:46:41;18.90;1.00
6054;DHT22;3055;50.886;14.814;2023-08-07T09:49:08;19.00;1.00
6054;DHT22;3055;50.886;14.814;2023-08-07T09:51:41;19.20;74.00
6054;DHT22;3055;50.886;14.814;2023-08-07T09:54:10;19.40;1.00
6054;DHT22;3055;50.886;14.814;2023-08-07T09:56:40;19.80;1.00
6054;DHT22;3055;50.886;14.814;2023-08-07T09:59:07;20.10;99.90
6054;DHT22;3055;50.886;14.814;2023-08-07T10:01:37;20.30;99.90
6054;DHT22;3055;50.886;14.814;2023-08-07T10:04:05;20.40;1.00
6054;DHT22;3055;50.886;14.814;2023-08-07T10:06:33;20.40;1.00
6054;DHT22;3055;50.886;14.814;2023-08-07T10:09:01;20.10;99.90
6054;DHT22;3055;50.886;14.814;2023-08-07T10:11:29;19.90;1.00
6054;DHT22;3055;50.886;14.814;2023-08-07T10:13:59;19.80;1.00
6054;DHT22;3055;50.886;14.814;2023-08-07T10:16:27;19.70;99.90
6054;DHT22;3055;50.886;14.814;2023-08-07T10:18:55;19.60;99.90
6054;DHT22;3055;50.886;14.814;2023-08-07T10:23:51;19.20;1.00
6054;DHT22;3055;50.886;14.814;2023-08-07T10:26:21;19.20;1.00
6054;DHT22;3055;50.886;14.814;2023-08-07T10:28:50;19.40;1.00
6054;DHT22;3055;50.886;14.814;2023-08-07T10:31:21;19.60;1.00
6054;DHT22;3055;50.886;14.814;2023-08-07T10:33:49;19.60;1.00
6054;DHT22;3055;50.886;14.814;2023-08-07T10:36:16;19.80;1.00
6054;DHT22;3055;50.886;14.814;2023-08-07T10:38:44;19.80;99.90
6054;DHT22;3055;50.886;14.814;2023-08-07T10:41:13;19.60;1.00
6054;DHT22;3055;50.886;14.814;2023-08-07T10:43:41;19.10;99.90
6054;DHT22;3055;50.886;14.814;2023-08-07T10:46:10;18.60;99.90
6054;DHT22;3055;50.886;14.814;2023-08-07T10:48:44;18.40;1.00
6054;DHT22;3055;50.886;14.814;2023-08-07T10:51:13;18.30;99.90
6054;DHT22;3055;50.886;14.814;2023-08-07T10:53:42;18.60;99.90
6054;DHT22;3055;50.886;14.814;2023-08-07T10:56:11;19.20;1.00
6054;DHT22;3055;50.886;14.814;2023-08-07T10:58:42;19.70;99.90
6054;DHT22;3055;50.886;14.814;2023-08-07T11:01:16;20.00;1.00
6054;DHT22;3055;50.886;14.814;2023-08-07T11:03:49;20.40;1.00
6054;DHT22;3055;50.886;14.814;2023-08-07T11:06:17;20.50;99.90
6054;DHT22;3055;50.886;14.814;2023-08-07T11:08:44;20.60;99.90
6054;DHT22;3055;50.886;14.814;2023-08-07T11:11:11;20.80;99.90
6054;DHT22;3055;50.886;14.814;2023-08-07T11:13:38;20.90;99.90
6054;DHT22;3055;50.886;14.814;2023-08-07T11:16:05;20.90;99.90
6054;DHT22;3055;50.886;14.814;2023-08-07T11:18:33;21.10;99.90
6054;DHT22;3055;50.886;14.814;2023-08-07T11:21:03;21.20;99.90
6054;DHT22;3055;50.886;14.814;2023-08-07T11:23:31;21.20;99.90
6054;DHT22;3055;50.886;14.814;2023-08-07T11:25:58;21.00;99.90
6054;DHT22;3055;50.886;14.814;2023-08-07T11:28:25;20.80;99.90
6054;DHT22;3055;50.886;14.814;2023-08-07T11:30:53;20.50;99.90
6054;DHT22;3055;50.886;14.814;2023-08-07T11:33:21;20.40;99.90
6054;DHT22;3055;50.886;14.814;2023-08-07T11:35:57;20.40;99.90
6054;DHT22;3055;50.886;14.814;2023-08-07T11:38:32;20.30;99.90
6054;DHT22;3055;50.886;14.814;2023-08-07T11:41:00;20.20;99.90
6054;DHT22;3055;50.886;14.814;2023-08-07T11:43:28;20.10;99.90
6054;DHT22;3055;50.886;14.814;2023-08-07T11:45:57;19.70;99.90
6054;DHT22;3055;50.886;14.814;2023-08-07T11:48:25;19.20;99.90
6054;DHT22;3055;50.886;14.814;2023-08-07T11:50:53;19.10;99.90
6054;DHT22;3055;50.886;14.814;2023-08-07T11:53:21;18.80;1.00
6054;DHT22;3055;50.886;14.814;2023-08-07T11:55:54;18.80;1.00
6054;DHT22;3055;50.886;14.814;2023-08-07T11:58:22;18.60;1.00
6054;DHT22;3055;50.886;14.814;2023-08-07T12:00:50;18.40;1.00
6054;DHT22;3055;50.886;14.814;2023-08-07T12:03:27;18.30;1.00
6054;DHT22;3055;50.886;14.814;2023-08-07T12:05:56;18.30;99.90
6054;DHT22;3055;50.886;14.814;2023-08-07T12:08:23;18.70;1.00
6054;DHT22;3055;50.886;14.814;2023-08-07T12:10:52;19.10;1.00
6054;DHT22;3055;50.886;14.814;2023-08-07T12:13:23;19.40;1.00
6054;DHT22;3055;50.886;14.814;2023-08-07T12:15:51;19.30;99.90
6054;DHT22;3055;50.886;14.814;2023-08-07T12:18:19;19.10;1.00
6054;DHT22;3055;50.886;14.814;2023-08-07T12:20:49;18.70;1.00
6054;DHT22;3055;50.886;14.814;2023-08-07T12:23:17;18.40;1.00
6054;DHT22;3055;50.886;14.814;2023-08-07T12:25:44;18.20;1.00
6054;DHT22;3055;50.886;14.814;2023-08-07T12:28:13;18.20;99.90
6054;DHT22;3055;50.886;14.814;2023-08-07T12:30:42;18.40;1.00
6054;DHT22;3055;50.886;14.814;2023-08-07T12:33:11;18.70;1.00
6054;DHT22;3055;50.886;14.814;2023-08-07T12:35:38;19.10;99.90
6054;DHT22;3055;50.886;14.814;2023-08-07T12:38:05;19.40;28.60
6054;DHT22;3055;50.886;14.814;2023-08-07T12:40:32;19.80;99.90
6054;DHT22;3055;50.886;14.814;2023-08-07T12:43:02;20.00;1.00
6054;DHT22;3055;50.886;14.814;2023-08-07T12:45:30;20.30;1.00
6054;DHT22;3055;50.886;14.814;2023-08-07T12:47:58;20.30;99.90
6054;DHT22;3055;50.886;14.814;2023-08-07T12:50:25;20.10;99.90
6054;DHT22;3055;50.886;14.814;2023-08-07T12:52:55;19.80;99.90
6054;DHT22;3055;50.886;14.814;2023-08-07T12:55:22;19.70;99.90
6054;DHT22;3055;50.886;14.814;2023-08-07T12:57:50;19.50;1.00
6054;DHT22;3055;50.886;14.814;2023-08-07T13:00:17;19.70;1.00
6054;DHT22;3055;50.886;14.814;2023-08-07T13:02:47;20.00;1.00
6054;DHT22;3055;50.886;14.814;2023-08-07T13:05:15;20.20;99.90
6054;DHT22;3055;50.886;14.814;2023-08-07T13:07:42;20.20;99.90
6054;DHT22;3055;50.886;14.814;2023-08-07T13:10:11;20.00;99.90
6054;DHT22;3055;50.886;14.814;2023-08-07T13:12:40;20.00;99.90
6054;DHT22;3055;50.886;14.814;2023-08-07T13:15:08;19.90;99.90
6054;DHT22;3055;50.886;14.814;2023-08-07T13:17:38;19.90;99.90
6054;DHT22;3055;50.886;14.814;2023-08-07T13:20:07;19.60;99.90
6054;DHT22;3055;50.886;14.814;2023-08-07T13:22:36;19.30;99.90
6054;DHT22;3055;50.886;14.814;2023-08-07T13:25:04;19.10;1.00
6054;DHT22;3055;50.886;14.814;2023-08-07T13:27:31;19.10;1.00
6054;DHT22;3055;50.886;14.814;2023-08-07T13:29:59;19.20;1.00
6054;DHT22;3055;50.886;14.814;2023-08-07T13:32:26;19.30;1.00
6054;DHT22;3055;50.886;14.814;2023-08-07T13:35:00;19.40;1.00
6054;DHT22;3055;50.886;14.814;2023-08-07T13:37:29;19.50;1.00
6054;DHT22;3055;50.886;14.814;2023-08-07T13:39:57;19.60;1.00
6054;DHT22;3055;50.886;14.814;2023-08-07T13:42:24;19.90;1.00
6054;DHT22;3055;50.886;14.814;2023-08-07T13:44:53;20.20;99.90
6054;DHT22;3055;50.886;14.814;2023-08-07T13:47:20;20.40;99.90
6054;DHT22;3055;50.886;14.814;2023-08-07T13:49:47;20.60;99.90
6054;DHT22;3055;50.886;14.814;2023-08-07T13:52:15;21.00;99.90
6054;DHT22;3055;50.886;14.814;2023-08-07T13:54:43;21.20;99.90
6054;DHT22;3055;50.886;14.814;2023-08-07T13:57:10;21.00;99.90
6054;DHT22;3055;50.886;14.814;2023-08-07T13:59:37;20.60;99.90
6054;DHT22;3055;50.886;14.814;2023-08-07T14:02:05;20.20;99.90
6054;DHT22;3055;50.886;14.814;2023-08-07T14:04:32;19.90;99.90
6054;DHT22;3055;50.886;14.814;2023-08-07T14:07:03;19.70;1.00
6054;DHT22;3055;50.886;14.814;2023-08-07T14:09:30;19.60;1.00
6054;DHT22;3055;50.886;14.814;2023-08-07T14:11:59;19.80;1.00
6054;DHT22;3055;50.886;14.814;2023-08-07T14:14:26;20.00;99.90
6054;DHT22;3055;50.886;14.814;2023-08-07T14:16:53;20.30;1.00
6054;DHT22;3055;50.886;14.814;2023-08-07T14:19:23;20.30;99.90
6054;DHT22;3055;50.886;14.814;2023-08-07T14:21:53;20.30;99.90
6054;DHT22;3055;50.886;14.814;2023-08-07T14:24:20;20.20;99.90
6054;DHT22;3055;50.886;14.814;2023-08-07T14:26:47;19.80;99.90
6054;DHT22;3055;50.886;14.814;2023-08-07T14:29:15;19.60;1.00
6054;DHT22;3055;50.886;14.814;2023-08-07T14:31:42;19.10;1.00
6054;DHT22;3055;50.886;14.814;2023-08-07T14:34:11;18.70;99.90
6054;DHT22;3055;50.886;14.814;2023-08-07T14:36:38;18.40;99.90
6054;DHT22;3055;50.886;14.814;2023-08-07T14:39:06;18.20;1.00
6054;DHT22;3055;50.886;14.814;2023-08-07T14:41:33;18.10;99.90
6054;DHT22;3055;50.886;14.814;2023-08-07T14:44:00;18.30;1.00
6054;DHT22;3055;50.886;14.814;2023-08-07T14:46:29;18.90;99.90
6054;DHT22;3055;50.886;14.814;2023-08-07T14:48:56;19.60;1.00
6054;DHT22;3055;50.886;14.814;2023-08-07T14:51:23;20.00;99.90
6054;DHT22;3055;50.886;14.814;2023-08-07T14:53:50;20.00;66.10
6054;DHT22;3055;50.886;14.814;2023-08-07T14:56:17;19.80;99.90
6054;DHT22;3055;50.886;14.814;2023-08-07T14:58:44;19.80;99.90
6054;DHT22;3055;50.886;14.814;2023-08-07T15:01:11;19.40;86.10
6054;DHT22;3055;50.886;14.814;2023-08-07T15:03:40;19.20;99.90
6054;DHT22;3055;50.886;14.814;2023-08-07T15:06:07;19.00;99.90
6054;DHT22;3055;50.886;14.814;2023-08-07T15:08:34;18.70;1.00
6054;DHT22;3055;50.886;14.814;2023-08-07T15:11:01;18.40;1.00
6054;DHT22;3055;50.886;14.814;2023-08-07T15:13:28;18.20;99.90
6054;DHT22;3055;50.886;14.814;2023-08-07T15:15:55;17.90;1.00
6054;DHT22;3055;50.886;14.814;2023-08-07T15:18:22;17.60;1.00
6054;DHT22;3055;50.886;14.814;2023-08-07T15:20:52;17.50;14.00
6054;DHT22;3055;50.886;14.814;2023-08-07T15:23:19;17.30;15.30
6054;DHT22;3055;50.886;14.814;2023-08-07T15:25:46;17.10;48.00
6054;DHT22;3055;50.886;14.814;2023-08-07T15:28:13;16.90;23.80
6054;DHT22;3055;50.886;14.814;2023-08-07T15:30:47;16.60;38.70
6054;DHT22;3055;50.886;14.814;2023-08-07T15:33:14;16.30;99.90
6054;DHT22;3055;50.886;14.814;2023-08-07T15:35:42;16.10;99.90
6054;DHT22;3055;50.886;14.814;2023-08-07T15:38:10;15.90;99.90
6054;DHT22;3055;50.886;14.814;2023-08-07T15:40:38;15.90;99.90
6054;DHT22;3055;50.886;14.814;2023-08-07T15:43:06;15.80;99.90
6054;DHT22;3055;50.886;14.814;2023-08-07T15:45:33;15.80;99.90
6054;DHT22;3055;50.886;14.814;2023-08-07T15:48:00;15.80;99.90
6054;DHT22;3055;50.886;14.814;2023-08-07T15:50:28;16.00;99.90
6054;DHT22;3055;50.886;14.814;2023-08-07T15:52:56;16.20;99.90
6054;DHT22;3055;50.886;14.814;2023-08-07T15:55:25;16.70;92.10
6054;DHT22;3055;50.886;14.814;2023-08-07T15:57:52;17.10;68.00